createdAt,value
2022-10-10T00:01:07.743Z,39.30
2022-10-10T00:06:32.987Z,36.63
2022-10-10T00:11:55.313Z,33.17
2022-10-10T00:17:17.350Z,35.90
2022-10-10T00:22:39.934Z,35.20
2022-10-10T00:28:04.124Z,33.45
2022-10-10T00:33:26.039Z,32.50
2022-10-10T00:38:48.308Z,33.60
2022-10-10T00:44:15.543Z,30.45
2022-10-10T00:49:41.716Z,36.95
2022-10-10T00:55:03.886Z,33.72
2022-10-10T01:00:25.722Z,30.08
2022-10-10T01:05:48.398Z,30.92
2022-10-10T01:11:22.117Z,34.42
2022-10-10T01:17:02.294Z,31.20
2022-10-10T01:22:39.409Z,37.33
2022-10-10T01:28:10.872Z,31.98
2022-10-10T01:33:54.938Z,36.22
2022-10-10T01:39:46.320Z,41.33
2022-10-10T01:45:08.674Z,33.78
2022-10-10T01:50:44.843Z,38.00
2022-10-10T01:56:22.983Z,42.75
2022-10-10T02:02:00.709Z,39.67
2022-10-10T02:07:30.782Z,43.72
2022-10-10T02:12:54.940Z,43.50
2022-10-10T02:18:20.030Z,41.50
2022-10-10T02:23:47.456Z,54.45
2022-10-10T02:29:25.798Z,64.70
2022-10-10T02:34:52.211Z,73.97
2022-10-10T02:40:24.244Z,157.02
2022-10-10T02:45:46.610Z,137.80
2022-10-10T02:51:09.645Z,233.02
2022-10-10T02:56:31.574Z,90.95
2022-10-10T03:01:53.420Z,180.02
2022-10-10T03:07:15.212Z,254.98
2022-10-10T03:12:37.516Z,233.52
2022-10-10T03:17:59.330Z,241.15
2022-10-10T03:23:21.381Z,129.00
2022-10-10T03:28:43.210Z,72.88
2022-10-10T03:34:05.438Z,111.20
2022-10-10T03:39:27.350Z,108.72
2022-10-10T03:44:49.171Z,148.35
2022-10-10T03:50:11.048Z,113.57
2022-10-10T03:55:32.864Z,136.68
2022-10-10T04:01:00.196Z,118.75
2022-10-10T04:06:22.375Z,113.97
2022-10-10T04:11:44.237Z,114.78
2022-10-10T04:17:06.043Z,118.20
2022-10-10T04:22:27.888Z,67.28
2022-10-10T04:27:49.883Z,94.22
2022-10-10T04:33:12.002Z,66.47
2022-10-10T04:38:35.182Z,101.95
2022-10-10T04:43:57.028Z,90.43
2022-10-10T04:49:18.980Z,174.70
2022-10-10T04:54:40.814Z,100.65
2022-10-10T05:00:04.990Z,95.55
2022-10-10T05:05:26.846Z,45.70
2022-10-10T05:10:48.672Z,40.72
2022-10-10T05:16:10.846Z,34.67
2022-10-10T05:21:32.675Z,50.67
2022-10-10T05:26:54.518Z,59.88
2022-10-10T05:32:16.574Z,29.58
2022-10-10T05:37:38.475Z,35.38
2022-10-10T05:43:00.491Z,65.40
2022-10-10T05:48:22.790Z,131.18
2022-10-10T05:53:44.736Z,107.30
2022-10-10T05:59:06.621Z,33.63
2022-10-10T06:04:28.466Z,86.65
2022-10-10T06:09:50.307Z,109.22
2022-10-10T06:15:12.118Z,68.60
2022-10-10T06:20:36.266Z,49.95
2022-10-10T06:25:58.084Z,64.50
2022-10-10T06:31:20.043Z,46.20
2022-10-10T06:36:41.944Z,36.90
2022-10-10T06:42:03.907Z,32.20
2022-10-10T06:47:25.861Z,27.98
2022-10-10T06:52:48.748Z,22.73
2022-10-10T06:58:10.849Z,19.35
2022-10-10T07:08:54.647Z,20.45
2022-10-10T07:14:16.576Z,16.92
2022-10-10T07:19:38.357Z,20.63
2022-10-10T07:25:00.442Z,18.35
2022-10-10T07:30:23.166Z,15.43
2022-10-10T07:35:52.870Z,14.20
2022-10-10T07:41:14.739Z,14.50
2022-10-10T07:46:36.557Z,17.80
2022-10-10T07:52:00.431Z,14.00
2022-10-10T07:57:23.306Z,17.50
2022-10-10T08:02:45.151Z,22.52
2022-10-10T08:08:07.034Z,15.90
2022-10-10T08:13:28.855Z,15.40
2022-10-10T08:18:50.784Z,15.25
2022-10-10T08:24:12.972Z,16.65
2022-10-10T08:29:34.791Z,16.27
2022-10-10T08:34:56.646Z,21.13
2022-10-10T08:40:21.589Z,16.20
2022-10-10T08:45:44.074Z,14.05
2022-10-10T08:51:14.154Z,14.27
2022-10-10T08:56:36.623Z,12.40
2022-10-10T09:02:19.329Z,12.07
2022-10-10T09:08:05.368Z,11.90
2022-10-10T09:13:33.550Z,10.57
2022-10-10T09:19:17.494Z,10.95
2022-10-10T09:24:51.215Z,24.55
2022-10-10T09:30:20.048Z,7.90
2022-10-10T09:35:42.539Z,9.82
2022-10-10T09:41:29.764Z,8.15
2022-10-10T09:46:52.702Z,6.57
2022-10-10T09:52:26.924Z,6.82
2022-10-10T09:57:52.317Z,6.70
2022-10-10T10:03:19.599Z,9.15
2022-10-10T10:08:42.761Z,6.90
2022-10-10T10:14:04.892Z,7.60
2022-10-10T10:19:46.125Z,7.72
2022-10-10T10:25:31.427Z,8.02
2022-10-10T10:30:55.488Z,8.80
2022-10-10T10:36:29.439Z,8.77
2022-10-10T10:42:04.842Z,6.07
2022-10-10T10:47:32.735Z,6.60
2022-10-10T10:53:19.991Z,5.03
2022-10-10T11:05:17.267Z,4.68
2022-10-10T11:10:59.397Z,3.85
2022-10-10T11:16:47.806Z,4.78
2022-10-10T11:22:22.535Z,4.18
2022-10-10T11:27:57.749Z,4.10
2022-10-10T11:33:27.838Z,3.95
2022-10-10T11:39:15.371Z,3.35
2022-10-10T11:44:57.936Z,4.47
2022-10-10T11:50:26.856Z,4.57
2022-10-10T11:56:08.904Z,3.88
2022-10-10T12:01:43.388Z,4.50
2022-10-10T12:07:13.819Z,3.22
2022-10-10T12:12:43.444Z,4.22
2022-10-10T12:18:05.502Z,4.70
2022-10-10T12:23:30.675Z,4.20
2022-10-10T12:29:37.218Z,5.45
2022-10-10T12:35:01.090Z,6.28
2022-10-10T12:40:23.117Z,5.75
2022-10-10T12:46:18.999Z,4.40
2022-10-10T12:51:41.928Z,4.20
2022-10-10T12:57:27.979Z,5.03
2022-10-10T13:02:54.309Z,4.38
2022-10-10T13:08:20.156Z,5.50
2022-10-10T13:13:53.949Z,2.20
2022-10-10T13:19:21.909Z,3.83
2022-10-10T13:24:45.486Z,3.28
2022-10-10T13:30:08.033Z,7.53
2022-10-10T13:35:30.235Z,4.25
2022-10-10T13:40:52.456Z,4.20
2022-10-10T13:46:30.689Z,2.75
2022-10-10T13:52:23.500Z,2.17
2022-10-10T13:57:45.361Z,2.88
2022-10-10T14:03:19.974Z,3.50
2022-10-10T14:08:41.847Z,4.93
2022-10-10T14:14:16.438Z,5.13
2022-10-10T14:19:38.703Z,3.47
2022-10-10T14:25:00.698Z,4.93
2022-10-10T14:30:22.528Z,3.70
2022-10-10T14:35:46.050Z,3.35
2022-10-10T14:41:10.588Z,3.05
2022-10-10T14:46:32.494Z,2.80
2022-10-10T14:51:54.283Z,3.92
2022-10-10T14:57:16.094Z,3.40
2022-10-10T15:02:43.195Z,4.20
2022-10-10T15:08:08.295Z,4.38
2022-10-10T15:13:30.355Z,4.38
2022-10-10T15:18:54.388Z,4.05
2022-10-10T15:24:16.842Z,5.43
2022-10-10T15:29:39.489Z,5.50
2022-10-10T15:35:01.310Z,4.03
2022-10-10T15:40:23.951Z,4.82
2022-10-10T15:45:55.839Z,5.47
2022-10-10T15:51:18.516Z,5.25
2022-10-10T15:56:42.189Z,5.88
2022-10-10T16:02:04.038Z,4.82
2022-10-10T16:07:29.897Z,5.65
2022-10-10T16:12:54.597Z,6.28
2022-10-10T16:18:16.506Z,6.50
2022-10-10T16:23:38.617Z,8.80
2022-10-10T16:29:01.664Z,6.68
2022-10-10T16:34:23.684Z,6.20
2022-10-10T16:39:45.513Z,6.40
2022-10-10T16:45:07.947Z,10.32
2022-10-10T16:50:29.737Z,9.65
2022-10-10T16:55:51.803Z,8.73
2022-10-10T17:01:16.201Z,9.98
2022-10-10T17:06:38.198Z,11.07
2022-10-10T17:12:00.118Z,12.60
2022-10-10T17:17:21.949Z,11.05
2022-10-10T17:22:43.847Z,36.05
2022-10-10T17:28:05.775Z,13.70
2022-10-10T17:33:27.674Z,14.85
2022-10-10T17:38:49.539Z,13.93
2022-10-10T17:44:11.451Z,14.45
2022-10-10T17:49:33.523Z,24.15
2022-10-10T17:54:55.501Z,14.35
2022-10-10T18:00:17.541Z,15.43
2022-10-10T18:05:39.641Z,18.38
2022-10-10T18:11:02.298Z,17.25
2022-10-10T18:16:24.222Z,16.80
2022-10-10T18:21:46.053Z,17.25
2022-10-10T18:27:07.902Z,16.10
2022-10-10T18:32:29.768Z,17.50
2022-10-10T18:37:51.640Z,15.15
2022-10-10T18:43:13.518Z,12.45
2022-10-10T18:48:36.728Z,16.67
2022-10-10T18:54:03.760Z,17.67
2022-10-10T18:59:25.610Z,13.43
2022-10-10T19:04:47.478Z,15.85
2022-10-10T19:10:09.337Z,13.25
2022-10-10T19:15:33.662Z,17.15
2022-10-10T19:21:03.267Z,15.13
2022-10-10T19:26:25.459Z,13.95
2022-10-10T19:31:47.329Z,17.90
2022-10-10T19:37:09.389Z,15.75
2022-10-10T19:42:31.610Z,14.40
2022-10-10T19:47:53.541Z,14.75
2022-10-10T19:53:17.494Z,18.73
2022-10-10T19:58:39.656Z,17.77
2022-10-10T20:04:01.818Z,15.07
2022-10-10T20:09:23.896Z,17.05
2022-10-10T20:14:45.827Z,15.60
2022-10-10T20:20:08.171Z,16.08
2022-10-10T20:25:30.292Z,16.42
2022-10-10T20:30:52.239Z,16.83
2022-10-10T20:36:14.859Z,17.60
2022-10-10T20:41:38.080Z,18.77
2022-10-10T20:46:59.991Z,14.98
2022-10-10T20:52:21.805Z,14.38
2022-10-10T20:57:43.721Z,15.35
2022-10-10T21:03:05.568Z,16.02
2022-10-10T21:08:28.260Z,18.20
2022-10-10T21:13:56.111Z,19.05
2022-10-10T21:19:18.119Z,18.05
2022-10-10T21:24:39.988Z,17.27
2022-10-10T21:30:01.872Z,15.55
2022-10-10T21:35:23.752Z,16.67
2022-10-10T21:40:46.100Z,15.82
2022-10-10T21:46:12.056Z,18.13
2022-10-10T21:51:43.177Z,18.47
2022-10-10T21:57:04.987Z,15.43
2022-10-10T22:02:26.856Z,15.70
2022-10-10T22:07:48.684Z,17.30
2022-10-10T22:13:10.548Z,15.88
2022-10-10T22:18:32.709Z,15.80
2022-10-10T22:23:54.560Z,17.33
2022-10-10T22:29:16.444Z,17.08
2022-10-10T22:34:38.456Z,17.17
2022-10-10T22:40:00.349Z,16.98
2022-10-10T22:45:23.099Z,14.38
2022-10-10T22:50:44.922Z,16.65
2022-10-10T22:56:07.841Z,19.33
2022-10-10T23:01:29.891Z,17.23
2022-10-10T23:06:51.801Z,13.25
2022-10-10T23:12:14.053Z,13.65
2022-10-10T23:17:36.637Z,13.88
2022-10-10T23:22:58.617Z,13.05
2022-10-10T23:28:20.700Z,13.60
2022-10-10T23:33:42.972Z,17.70
2022-10-10T23:39:09.591Z,13.52
2022-10-10T23:44:31.976Z,18.48
2022-10-10T23:49:53.847Z,13.63
2022-10-10T23:55:15.874Z,14.75
